createdAt,value
2022-08-26T00:00:57.710Z,14.50
2022-08-26T00:03:28.588Z,13.40
2022-08-26T00:05:58.918Z,15.30
2022-08-26T00:08:29.181Z,15.55
2022-08-26T00:10:59.964Z,13.68
2022-08-26T00:13:31.028Z,15.52
2022-08-26T00:16:02.018Z,15.52
2022-08-26T00:18:38.713Z,17.23
2022-08-26T00:21:12.389Z,16.08
2022-08-26T00:23:43.662Z,15.73
2022-08-26T00:26:16.291Z,15.20
2022-08-26T00:28:46.621Z,15.85
2022-08-26T00:31:17.086Z,15.77
2022-08-26T00:33:47.403Z,13.30
2022-08-26T00:36:20.587Z,15.13
2022-08-26T00:38:50.936Z,14.88
2022-08-26T00:41:22.848Z,16.23
2022-08-26T00:43:54.503Z,15.30
2022-08-26T00:46:30.989Z,15.32
2022-08-26T00:49:19.506Z,14.98
2022-08-26T00:51:55.797Z,16.08
2022-08-26T00:54:29.553Z,17.05
2022-08-26T00:57:04.626Z,15.27
2022-08-26T00:59:39.406Z,15.37
2022-08-26T01:02:20.160Z,20.65
2022-08-26T01:04:57.749Z,17.65
2022-08-26T01:07:31.376Z,16.00
2022-08-26T01:10:04.049Z,15.82
2022-08-26T01:12:37.532Z,14.20
2022-08-26T01:15:15.748Z,14.70
2022-08-26T01:17:47.741Z,13.98
2022-08-26T01:20:36.780Z,13.57
2022-08-26T01:23:10.559Z,13.23
2022-08-26T01:25:45.204Z,14.52
2022-08-26T01:28:23.957Z,13.32
2022-08-26T01:30:56.184Z,12.93
2022-08-26T01:33:39.963Z,12.85
2022-08-26T01:36:14.292Z,12.98
2022-08-26T01:38:46.200Z,12.35
2022-08-26T01:41:19.909Z,11.98
2022-08-26T01:44:00.281Z,10.07
2022-08-26T01:46:33.638Z,11.65
2022-08-26T01:49:08.171Z,10.85
2022-08-26T01:51:41.129Z,10.45
2022-08-26T01:54:13.869Z,11.73
2022-08-26T01:56:44.710Z,12.05
2022-08-26T01:59:18.219Z,12.02
2022-08-26T02:01:50.717Z,12.18
2022-08-26T02:04:31.837Z,12.82
2022-08-26T02:09:41.006Z,13.43
2022-08-26T02:12:14.700Z,14.20
2022-08-26T02:14:52.218Z,19.02
2022-08-26T02:17:29.817Z,14.40
2022-08-26T02:20:01.203Z,14.25
2022-08-26T02:22:34.016Z,13.68
2022-08-26T02:25:24.298Z,13.32
2022-08-26T02:27:55.242Z,14.40
2022-08-26T02:30:31.090Z,15.05
2022-08-26T02:33:05.635Z,14.73
2022-08-26T02:35:38.130Z,17.85
2022-08-26T02:38:12.541Z,17.80
2022-08-26T02:40:46.632Z,15.63
2022-08-26T02:43:18.900Z,16.27
2022-08-26T02:46:02.454Z,16.80
2022-08-26T02:48:33.673Z,16.35
2022-08-26T02:51:04.595Z,14.55
2022-08-26T02:53:35.411Z,15.68
2022-08-26T02:56:07.272Z,14.63
2022-08-26T02:58:37.945Z,19.77
2022-08-26T03:01:08.665Z,19.00
2022-08-26T03:03:39.025Z,16.60
2022-08-26T03:06:09.490Z,15.50
2022-08-26T03:08:39.881Z,16.02
2022-08-26T03:11:10.554Z,15.70
2022-08-26T03:13:42.928Z,17.20
2022-08-26T03:16:13.769Z,18.02
2022-08-26T03:18:52.070Z,15.60
2022-08-26T03:21:24.376Z,15.82
2022-08-26T03:23:54.840Z,18.00
2022-08-26T03:26:30.130Z,18.52
2022-08-26T03:29:10.771Z,17.88
2022-08-26T03:31:41.457Z,16.25
2022-08-26T03:34:13.185Z,17.75
2022-08-26T03:36:44.160Z,17.95
2022-08-26T03:39:16.050Z,17.35
2022-08-26T03:41:47.333Z,19.83
2022-08-26T03:44:17.981Z,19.25
2022-08-26T03:46:48.610Z,20.08
2022-08-26T03:49:19.552Z,18.85
2022-08-26T03:51:50.062Z,17.40
2022-08-26T03:54:20.645Z,20.30
2022-08-26T03:56:51.238Z,18.63
2022-08-26T03:59:22.167Z,20.17
2022-08-26T04:01:53.206Z,17.95
2022-08-26T04:04:24.520Z,20.63
2022-08-26T04:07:01.185Z,21.92
2022-08-26T04:09:32.755Z,21.98
2022-08-26T04:12:06.024Z,23.50
2022-08-26T04:14:38.716Z,21.70
2022-08-26T04:17:09.401Z,20.65
2022-08-26T04:19:39.791Z,22.00
2022-08-26T04:22:10.520Z,21.00
2022-08-26T04:24:41.928Z,20.25
2022-08-26T04:27:12.530Z,20.15
2022-08-26T04:29:43.967Z,20.60
2022-08-26T04:32:15.165Z,21.55
2022-08-26T04:34:47.493Z,19.90
2022-08-26T04:37:18.418Z,19.27
2022-08-26T04:39:48.895Z,18.88
2022-08-26T04:42:25.370Z,18.98
2022-08-26T04:44:57.370Z,20.08
2022-08-26T04:47:32.119Z,19.75
2022-08-26T04:50:02.886Z,19.52
2022-08-26T04:52:33.164Z,18.75
2022-08-26T04:55:03.575Z,20.40
2022-08-26T04:57:36.767Z,18.25
2022-08-26T05:00:11.044Z,17.20
2022-08-26T05:02:41.668Z,18.67
2022-08-26T05:05:13.279Z,19.13
2022-08-26T05:07:44.074Z,16.52
2022-08-26T05:10:14.885Z,18.05
2022-08-26T05:12:45.114Z,15.23
2022-08-26T05:15:15.454Z,17.92
2022-08-26T05:17:46.622Z,16.73
2022-08-26T05:20:17.471Z,16.98
2022-08-26T05:22:48.211Z,18.42
2022-08-26T05:25:20.548Z,19.88
2022-08-26T05:27:50.789Z,17.23
2022-08-26T05:30:22.277Z,17.00
2022-08-26T05:32:55.353Z,16.52
2022-08-26T05:35:26.050Z,13.13
2022-08-26T05:37:57.017Z,13.98
2022-08-26T05:40:28.732Z,12.27
2022-08-26T05:42:59.042Z,11.15
2022-08-26T05:45:30.134Z,10.68
2022-08-26T05:48:00.537Z,9.05
2022-08-26T05:50:30.912Z,10.48
2022-08-26T05:53:01.455Z,11.27
2022-08-26T05:55:32.481Z,10.77
2022-08-26T05:58:04.494Z,12.57
2022-08-26T06:00:35.197Z,11.68
2022-08-26T06:03:06.975Z,11.43
2022-08-26T06:05:43.420Z,12.18
2022-08-26T06:08:19.314Z,10.88
2022-08-26T06:10:55.025Z,12.05
2022-08-26T06:13:30.305Z,10.50
2022-08-26T06:16:05.529Z,9.43
2022-08-26T06:18:38.970Z,9.82
2022-08-26T06:21:21.473Z,9.93
2022-08-26T06:24:08.902Z,10.43
2022-08-26T06:26:40.672Z,7.93
2022-08-26T06:29:13.105Z,8.63
2022-08-26T06:31:54.759Z,9.02
2022-08-26T06:34:30.327Z,9.95
2022-08-26T06:37:04.591Z,10.45
2022-08-26T06:39:40.116Z,11.32
2022-08-26T06:42:12.830Z,10.80
2022-08-26T06:44:44.721Z,9.05
2022-08-26T06:47:15.418Z,9.23
2022-08-26T06:49:45.786Z,8.52
2022-08-26T06:52:21.190Z,9.30
2022-08-26T06:54:54.928Z,9.03
2022-08-26T06:57:25.463Z,8.88
2022-08-26T06:59:55.757Z,8.95
2022-08-26T07:02:28.475Z,8.60
2022-08-26T07:04:59.101Z,8.07
2022-08-26T07:07:29.637Z,7.47
2022-08-26T07:10:00.114Z,7.72
2022-08-26T07:12:32.003Z,7.25
2022-08-26T07:15:02.536Z,7.28
2022-08-26T07:17:34.177Z,7.07
2022-08-26T07:20:05.515Z,6.30
2022-08-26T07:22:35.899Z,5.82
2022-08-26T07:25:10.513Z,5.95
2022-08-26T07:27:41.945Z,6.72
2022-08-26T07:30:14.852Z,6.28
2022-08-26T07:32:45.556Z,6.57
2022-08-26T07:35:16.203Z,6.88
2022-08-26T07:37:48.018Z,6.88
2022-08-26T07:40:19.072Z,7.50
2022-08-26T07:42:50.704Z,7.28
2022-08-26T07:45:21.211Z,8.13
2022-08-26T07:47:51.669Z,8.65
2022-08-26T07:50:22.176Z,6.72
2022-08-26T07:53:12.755Z,6.75
2022-08-26T07:55:45.190Z,6.07
2022-08-26T07:58:15.602Z,6.20
2022-08-26T08:00:46.243Z,6.63
2022-08-26T08:03:17.274Z,5.60
2022-08-26T08:05:48.517Z,8.30
2022-08-26T08:08:27.972Z,7.43
2022-08-26T08:10:59.853Z,7.75
2022-08-26T08:13:31.407Z,7.03
2022-08-26T08:16:02.667Z,7.50
2022-08-26T08:18:34.774Z,8.10
2022-08-26T08:21:21.073Z,7.38
2022-08-26T08:23:54.014Z,6.45
2022-08-26T08:26:25.935Z,7.78
2022-08-26T08:29:03.818Z,8.15
2022-08-26T08:31:57.016Z,7.20
2022-08-26T08:34:29.059Z,8.30
2022-08-26T08:37:00.314Z,7.45
2022-08-26T08:39:34.028Z,7.97
2022-08-26T08:42:34.633Z,8.05
2022-08-26T08:45:18.501Z,7.72
2022-08-26T08:48:00.127Z,7.28
2022-08-26T08:50:40.021Z,8.82
2022-08-26T08:56:09.906Z,9.98
2022-08-26T08:59:05.899Z,8.60
2022-08-26T09:02:00.621Z,6.45
2022-08-26T09:05:09.901Z,6.03
2022-08-26T09:08:12.681Z,5.18
2022-08-26T09:10:51.955Z,5.25
2022-08-26T09:13:27.310Z,5.45
2022-08-26T09:16:15.906Z,5.85
2022-08-26T09:19:19.248Z,6.35
2022-08-26T09:21:59.107Z,6.03
2022-08-26T09:24:32.605Z,6.93
2022-08-26T09:27:03.457Z,5.85
2022-08-26T09:29:50.282Z,7.80
2022-08-26T09:32:26.262Z,7.15
2022-08-26T09:35:03.858Z,6.75
2022-08-26T09:40:29.471Z,7.28
2022-08-26T09:43:22.599Z,7.63
2022-08-26T09:45:59.752Z,7.70
2022-08-26T09:48:36.294Z,8.55
2022-08-26T09:51:26.988Z,7.95
2022-08-26T09:54:00.273Z,7.18
2022-08-26T09:56:37.142Z,7.90
2022-08-26T09:59:11.486Z,7.72
2022-08-26T10:01:45.521Z,9.13
2022-08-26T10:04:33.297Z,8.70
2022-08-26T10:07:09.396Z,8.65
2022-08-26T10:09:46.700Z,8.20
2022-08-26T10:12:25.384Z,7.82
2022-08-26T10:15:00.494Z,7.20
2022-08-26T10:17:53.432Z,6.60
2022-08-26T10:20:28.317Z,8.32
2022-08-26T10:23:20.175Z,7.35
2022-08-26T10:26:07.968Z,7.57
2022-08-26T10:29:06.045Z,7.28
2022-08-26T10:32:02.687Z,8.48
2022-08-26T10:34:35.974Z,7.82
2022-08-26T10:37:22.536Z,8.20
2022-08-26T10:40:09.857Z,7.85
2022-08-26T10:42:56.306Z,7.20
2022-08-26T10:45:32.289Z,7.97
2022-08-26T10:48:10.602Z,7.68
2022-08-26T10:50:47.473Z,6.57
2022-08-26T10:53:39.425Z,7.10
2022-08-26T10:56:50.914Z,7.15
2022-08-26T10:59:52.053Z,8.80
2022-08-26T11:02:36.345Z,7.00
2022-08-26T11:05:21.602Z,6.95
2022-08-26T11:07:57.891Z,7.40
2022-08-26T11:10:58.837Z,6.63
2022-08-26T11:14:01.916Z,6.78
2022-08-26T11:16:44.397Z,7.18
2022-08-26T11:20:02.645Z,7.97
2022-08-26T11:25:15.151Z,6.47
2022-08-26T11:27:58.293Z,6.97
2022-08-26T11:30:47.464Z,7.68
2022-08-26T11:34:04.001Z,8.10
2022-08-26T11:36:57.311Z,8.18
2022-08-26T11:39:31.984Z,8.55
2022-08-26T11:42:24.685Z,8.43
2022-08-26T11:44:59.314Z,7.32
2022-08-26T11:47:34.581Z,7.90
2022-08-26T11:50:17.482Z,7.97
2022-08-26T11:53:03.803Z,14.93
2022-08-26T11:55:44.505Z,17.65
2022-08-26T11:58:17.819Z,17.55
2022-08-26T12:01:01.907Z,14.38
2022-08-26T12:03:50.795Z,12.85
2022-08-26T12:06:31.900Z,10.75
2022-08-26T12:09:07.870Z,9.63
2022-08-26T12:11:41.534Z,13.45
2022-08-26T12:14:27.965Z,13.68
2022-08-26T12:17:10.517Z,13.55
2022-08-26T12:19:40.993Z,12.07
2022-08-26T12:22:28.891Z,11.32
2022-08-26T12:25:02.221Z,11.68
2022-08-26T12:27:35.296Z,10.23
2022-08-26T12:30:20.387Z,10.57
2022-08-26T12:32:57.988Z,11.95
2022-08-26T12:35:30.819Z,10.70
2022-08-26T12:38:03.590Z,11.68
2022-08-26T12:40:43.675Z,11.82
2022-08-26T12:43:19.340Z,11.98
2022-08-26T12:46:02.770Z,13.10
2022-08-26T12:48:40.979Z,10.77
2022-08-26T12:51:27.715Z,11.82
2022-08-26T12:53:59.054Z,11.18
2022-08-26T12:56:40.849Z,10.82
2022-08-26T12:59:25.861Z,11.73
2022-08-26T13:01:57.238Z,13.30
2022-08-26T13:04:37.300Z,11.32
2022-08-26T13:07:26.927Z,11.80
2022-08-26T13:12:32.862Z,13.10
2022-08-26T13:15:05.187Z,12.40
2022-08-26T13:17:37.994Z,15.15
2022-08-26T13:20:08.754Z,12.80
2022-08-26T13:22:42.321Z,14.32
2022-08-26T13:25:12.783Z,13.40
2022-08-26T13:27:43.167Z,12.80
2022-08-26T13:30:14.662Z,12.38
2022-08-26T13:32:45.287Z,12.52
2022-08-26T13:35:15.635Z,13.95
2022-08-26T13:37:46.691Z,13.85
2022-08-26T13:40:17.198Z,15.88
2022-08-26T13:42:49.737Z,15.45
2022-08-26T13:45:20.824Z,18.05
2022-08-26T13:47:51.188Z,24.45
2022-08-26T13:50:22.098Z,24.92
2022-08-26T13:52:52.439Z,26.95
2022-08-26T13:55:22.773Z,23.00
2022-08-26T13:57:53.227Z,19.63
2022-08-26T14:00:25.055Z,21.15
2022-08-26T14:02:55.622Z,23.60
2022-08-26T14:05:26.595Z,25.73
2022-08-26T14:07:59.090Z,24.17
2022-08-26T14:10:31.258Z,25.02
2022-08-26T14:13:01.574Z,26.48
2022-08-26T14:15:34.547Z,28.48
2022-08-26T14:18:08.309Z,30.40
2022-08-26T14:20:40.840Z,23.60
2022-08-26T14:23:20.883Z,21.77
2022-08-26T14:25:51.927Z,18.90
2022-08-26T14:28:22.391Z,18.27
2022-08-26T14:31:01.517Z,16.65
2022-08-26T14:33:38.572Z,16.45
2022-08-26T14:36:23.052Z,15.98
2022-08-26T14:38:53.430Z,16.45
2022-08-26T14:41:26.623Z,15.80
2022-08-26T14:44:02.921Z,14.00
2022-08-26T14:46:37.495Z,15.20
2022-08-26T14:49:10.529Z,14.95
2022-08-26T14:51:43.351Z,15.63
2022-08-26T14:54:15.096Z,15.77
2022-08-26T14:56:58.274Z,16.75
2022-08-26T14:59:34.409Z,16.95
2022-08-26T15:02:05.301Z,17.88
2022-08-26T15:04:35.748Z,17.73
2022-08-26T15:07:07.565Z,18.00
2022-08-26T15:09:39.432Z,18.30
2022-08-26T15:12:09.923Z,16.55
2022-08-26T15:14:40.327Z,18.38
2022-08-26T15:17:10.740Z,20.35
2022-08-26T15:19:41.066Z,19.73
2022-08-26T15:22:14.196Z,18.38
2022-08-26T15:24:44.561Z,18.95
2022-08-26T15:27:14.934Z,17.70
2022-08-26T15:29:45.933Z,17.80
2022-08-26T15:32:16.272Z,17.92
2022-08-26T15:34:46.747Z,17.90
2022-08-26T15:37:17.112Z,19.50
2022-08-26T15:39:47.412Z,17.60
2022-08-26T15:42:17.810Z,19.05
2022-08-26T15:44:49.196Z,18.15
2022-08-26T15:47:19.760Z,18.50
2022-08-26T15:49:50.530Z,19.10
2022-08-26T15:52:22.332Z,20.38
2022-08-26T15:54:52.681Z,18.92
2022-08-26T15:57:23.048Z,19.75
2022-08-26T15:59:53.967Z,20.42
2022-08-26T16:02:25.218Z,20.40
2022-08-26T16:04:56.814Z,22.25
2022-08-26T16:07:29.178Z,20.15
2022-08-26T16:09:59.532Z,19.48
2022-08-26T16:12:29.924Z,19.90
2022-08-26T16:15:00.280Z,20.98
2022-08-26T16:17:31.158Z,21.13
2022-08-26T16:20:01.920Z,19.52
2022-08-26T16:22:33.582Z,19.77
2022-08-26T16:25:04.163Z,19.42
2022-08-26T16:27:34.560Z,20.15
2022-08-26T16:30:08.112Z,20.10
2022-08-26T16:32:38.396Z,20.83
2022-08-26T16:35:09.424Z,18.63
2022-08-26T16:37:39.721Z,19.42
2022-08-26T16:40:11.945Z,19.60
2022-08-26T16:42:44.174Z,23.10
2022-08-26T16:45:15.764Z,20.10
2022-08-26T16:47:46.540Z,22.45
2022-08-26T16:50:17.222Z,22.08
2022-08-26T16:52:48.206Z,24.73
2022-08-26T16:55:25.773Z,25.33
2022-08-26T16:57:56.250Z,24.52
2022-08-26T17:00:31.199Z,26.52
2022-08-26T17:03:03.577Z,26.33
2022-08-26T17:05:34.029Z,25.35
2022-08-26T17:08:04.434Z,31.83
2022-08-26T17:10:35.317Z,32.03
2022-08-26T17:13:05.699Z,30.83
2022-08-26T17:15:36.129Z,34.20
2022-08-26T17:18:06.775Z,34.72
2022-08-26T17:20:37.422Z,29.35
2022-08-26T17:23:07.716Z,28.60
2022-08-26T17:25:38.183Z,28.77
2022-08-26T17:28:13.168Z,25.92
2022-08-26T17:30:44.411Z,26.25
2022-08-26T17:33:14.734Z,26.20
2022-08-26T17:35:47.578Z,24.10
2022-08-26T17:38:17.932Z,22.17
2022-08-26T17:40:48.447Z,23.88
2022-08-26T17:43:19.226Z,23.45
2022-08-26T17:45:50.639Z,20.83
2022-08-26T17:48:21.306Z,21.20
2022-08-26T17:50:51.624Z,22.08
2022-08-26T17:53:22.642Z,21.38
2022-08-26T17:55:53.412Z,22.33
2022-08-26T17:58:25.326Z,20.52
2022-08-26T18:00:56.700Z,21.10
2022-08-26T18:03:27.229Z,20.70
2022-08-26T18:05:59.355Z,21.48
2022-08-26T18:08:30.068Z,21.98
2022-08-26T18:11:01.095Z,23.92
2022-08-26T18:13:31.458Z,24.20
2022-08-26T18:16:01.801Z,24.00
2022-08-26T18:18:32.165Z,22.90
2022-08-26T18:21:02.501Z,23.08
2022-08-26T18:23:33.340Z,20.35
2022-08-26T18:26:03.661Z,19.73
2022-08-26T18:28:34.118Z,17.65
2022-08-26T18:31:05.628Z,19.55
2022-08-26T18:33:36.255Z,20.95
2022-08-26T18:36:07.053Z,20.88
2022-08-26T18:38:40.143Z,25.05
2022-08-26T18:41:13.180Z,22.98
2022-08-26T18:43:43.550Z,22.30
2022-08-26T18:46:14.454Z,22.50
2022-08-26T18:48:44.886Z,25.40
2022-08-26T18:51:25.593Z,24.55
2022-08-26T18:53:56.496Z,27.42
2022-08-26T18:56:26.803Z,27.05
2022-08-26T18:58:57.373Z,25.30
2022-08-26T19:01:28.468Z,23.27
2022-08-26T19:04:00.285Z,21.98
2022-08-26T19:06:34.905Z,21.00
2022-08-26T19:09:09.057Z,20.75
2022-08-26T19:11:42.772Z,22.20
2022-08-26T19:14:18.542Z,20.70
2022-08-26T19:16:50.773Z,20.25
2022-08-26T19:19:22.976Z,22.05
2022-08-26T19:21:53.784Z,21.20
2022-08-26T19:24:25.966Z,22.35
2022-08-26T19:27:00.897Z,19.35
2022-08-26T19:29:34.848Z,21.25
2022-08-26T19:32:06.439Z,21.00
2022-08-26T19:34:36.835Z,22.45
2022-08-26T19:37:07.207Z,20.73
2022-08-26T19:39:38.235Z,19.65
2022-08-26T19:42:08.685Z,20.38
2022-08-26T19:44:56.678Z,20.50
2022-08-26T19:47:27.239Z,21.90
2022-08-26T19:49:59.301Z,21.48
2022-08-26T19:52:30.007Z,22.13
2022-08-26T19:55:01.637Z,21.25
2022-08-26T19:57:32.119Z,19.52
2022-08-26T20:00:03.280Z,21.52
2022-08-26T20:02:33.699Z,18.50
2022-08-26T20:05:05.546Z,20.38
2022-08-26T20:07:36.255Z,20.42
2022-08-26T20:10:09.012Z,18.60
2022-08-26T20:12:39.334Z,21.83
2022-08-26T20:15:10.833Z,19.08
2022-08-26T20:17:41.812Z,21.40
2022-08-26T20:20:33.156Z,19.60
2022-08-26T20:23:06.384Z,21.05
2022-08-26T20:25:37.148Z,19.33
2022-08-26T20:28:07.809Z,19.95
2022-08-26T20:30:38.114Z,19.95
2022-08-26T20:33:08.761Z,19.58
2022-08-26T20:35:39.087Z,19.90
2022-08-26T20:38:09.475Z,19.70
2022-08-26T20:40:39.952Z,21.17
2022-08-26T20:43:10.511Z,20.95
2022-08-26T20:45:41.059Z,20.30
2022-08-26T20:48:11.499Z,21.67
2022-08-26T20:50:41.927Z,22.60
2022-08-26T20:53:12.273Z,21.15
2022-08-26T20:55:42.887Z,23.50
2022-08-26T20:58:13.148Z,21.20
2022-08-26T21:00:44.456Z,23.13
2022-08-26T21:03:14.800Z,22.55
2022-08-26T21:05:55.996Z,23.42
2022-08-26T21:08:26.395Z,20.85
2022-08-26T21:10:56.911Z,18.67
2022-08-26T21:13:29.050Z,20.23
2022-08-26T21:16:06.651Z,20.45
2022-08-26T21:18:37.293Z,20.70
2022-08-26T21:21:11.091Z,19.83
2022-08-26T21:23:41.773Z,21.48
2022-08-26T21:26:16.989Z,21.20
2022-08-26T21:28:48.367Z,20.77
2022-08-26T21:31:22.268Z,22.45
2022-08-26T21:33:53.133Z,20.30
2022-08-26T21:36:23.668Z,20.05
2022-08-26T21:38:54.055Z,20.30
2022-08-26T21:41:24.891Z,21.83
2022-08-26T21:44:00.044Z,22.02
2022-08-26T21:46:33.596Z,20.90
2022-08-26T21:49:06.889Z,18.90
2022-08-26T21:51:40.656Z,20.73
2022-08-26T21:54:11.999Z,20.85
2022-08-26T21:56:48.651Z,20.70
2022-08-26T21:59:21.069Z,18.25
2022-08-26T22:01:51.718Z,21.00
2022-08-26T22:04:22.119Z,20.20
2022-08-26T22:06:55.568Z,18.75
2022-08-26T22:09:28.871Z,20.30
2022-08-26T22:12:00.179Z,18.77
2022-08-26T22:14:31.151Z,20.00
2022-08-26T22:17:02.387Z,20.83
2022-08-26T22:19:33.998Z,20.55
2022-08-26T22:22:05.700Z,18.55
2022-08-26T22:24:36.017Z,19.33
2022-08-26T22:27:06.899Z,17.95
2022-08-26T22:29:37.273Z,17.48
2022-08-26T22:32:07.890Z,18.35
2022-08-26T22:34:38.155Z,18.33
2022-08-26T22:37:08.848Z,17.40
2022-08-26T22:39:39.295Z,18.05
2022-08-26T22:42:09.705Z,16.48
2022-08-26T22:44:40.097Z,16.60
2022-08-26T22:47:10.330Z,18.33
2022-08-26T22:49:40.597Z,16.30
2022-08-26T22:52:11.047Z,15.75
2022-08-26T22:54:41.326Z,16.38
2022-08-26T22:57:11.810Z,18.08
2022-08-26T22:59:42.909Z,17.42
2022-08-26T23:02:13.853Z,18.90
2022-08-26T23:04:44.175Z,16.65
2022-08-26T23:07:14.642Z,17.00
2022-08-26T23:09:45.068Z,17.67
2022-08-26T23:12:15.474Z,18.45
2022-08-26T23:14:45.944Z,17.92
2022-08-26T23:17:16.616Z,17.35
2022-08-26T23:19:46.862Z,18.13
2022-08-26T23:22:18.943Z,18.20
2022-08-26T23:24:49.194Z,18.33
2022-08-26T23:27:19.935Z,17.27
2022-08-26T23:29:50.615Z,16.30
2022-08-26T23:32:21.129Z,18.85
2022-08-26T23:34:58.434Z,17.73
2022-08-26T23:37:34.174Z,19.42
2022-08-26T23:40:10.303Z,17.80
2022-08-26T23:42:40.978Z,16.42
2022-08-26T23:45:14.813Z,18.67
2022-08-26T23:47:45.048Z,16.55
2022-08-26T23:50:16.131Z,17.55
2022-08-26T23:53:03.907Z,17.40
2022-08-26T23:55:37.959Z,18.13
2022-08-26T23:58:09.458Z,19.30
